sensor_id;sensor_type;location;lat;lon;timestamp;P1;durP1;ratioP1;P2;durP2;ratioP2
44784;SDS011;30507;53.160;8.210;2024-02-26T00:02:15;1.95;;;1.63;;
44784;SDS011;30507;53.160;8.210;2024-02-26T00:04:40;1.60;;;1.50;;
44784;SDS011;30507;53.160;8.210;2024-02-26T00:07:05;2.23;;;1.63;;
44784;SDS011;30507;53.160;8.210;2024-02-26T00:09:30;2.60;;;1.80;;
44784;SDS011;30507;53.160;8.210;2024-02-26T00:11:56;1.70;;;1.60;;
44784;SDS011;30507;53.160;8.210;2024-02-26T00:14:21;2.33;;;1.92;;
44784;SDS011;30507;53.160;8.210;2024-02-26T00:16:46;1.40;;;1.30;;
44784;SDS011;30507;53.160;8.210;2024-02-26T00:19:11;1.53;;;1.43;;
44784;SDS011;30507;53.160;8.210;2024-02-26T00:21:39;1.67;;;1.50;;
44784;SDS011;30507;53.160;8.210;2024-02-26T00:24:05;1.58;;;1.15;;
44784;SDS011;30507;53.160;8.210;2024-02-26T00:26:30;1.60;;;1.50;;
44784;SDS011;30507;53.160;8.210;2024-02-26T00:28:55;5.13;;;2.08;;
44784;SDS011;30507;53.160;8.210;2024-02-26T00:31:20;1.48;;;1.38;;
44784;SDS011;30507;53.160;8.210;2024-02-26T00:33:45;1.73;;;1.63;;
44784;SDS011;30507;53.160;8.210;2024-02-26T00:36:10;1.37;;;1.27;;
44784;SDS011;30507;53.160;8.210;2024-02-26T00:38:35;1.30;;;1.27;;
44784;SDS011;30507;53.160;8.210;2024-02-26T00:41:01;1.07;;;1.03;;
44784;SDS011;30507;53.160;8.210;2024-02-26T00:43:26;1.50;;;1.40;;
44784;SDS011;30507;53.160;8.210;2024-02-26T00:45:51;1.40;;;1.30;;
44784;SDS011;30507;53.160;8.210;2024-02-26T00:48:17;1.83;;;1.73;;
44784;SDS011;30507;53.160;8.210;2024-02-26T00:50:42;1.73;;;1.63;;
44784;SDS011;30507;53.160;8.210;2024-02-26T00:53:08;1.48;;;1.10;;
44784;SDS011;30507;53.160;8.210;2024-02-26T00:55:33;1.48;;;1.38;;
44784;SDS011;30507;53.160;8.210;2024-02-26T00:57:58;1.23;;;1.15;;
44784;SDS011;30507;53.160;8.210;2024-02-26T01:00:23;1.58;;;1.48;;
44784;SDS011;30507;53.160;8.210;2024-02-26T01:02:49;1.43;;;1.33;;
44784;SDS011;30507;53.160;8.210;2024-02-26T01:05:14;0.90;;;0.90;;
44784;SDS011;30507;53.160;8.210;2024-02-26T01:07:39;1.30;;;1.20;;
44784;SDS011;30507;53.160;8.210;2024-02-26T01:10:05;1.20;;;1.10;;
44784;SDS011;30507;53.160;8.210;2024-02-26T01:12:33;1.10;;;1.10;;
44784;SDS011;30507;53.160;8.210;2024-02-26T01:14:59;1.38;;;1.30;;
44784;SDS011;30507;53.160;8.210;2024-02-26T01:17:24;1.02;;;0.95;;
44784;SDS011;30507;53.160;8.210;2024-02-26T01:19:49;1.20;;;1.10;;
44784;SDS011;30507;53.160;8.210;2024-02-26T01:22:15;1.05;;;1.02;;
44784;SDS011;30507;53.160;8.210;2024-02-26T01:24:40;2.40;;;1.40;;
44784;SDS011;30507;53.160;8.210;2024-02-26T01:27:05;1.25;;;1.13;;
44784;SDS011;30507;53.160;8.210;2024-02-26T01:29:31;1.17;;;1.08;;
44784;SDS011;30507;53.160;8.210;2024-02-26T01:31:56;1.10;;;1.00;;
44784;SDS011;30507;53.160;8.210;2024-02-26T01:34:21;1.73;;;0.90;;
44784;SDS011;30507;53.160;8.210;2024-02-26T01:36:46;2.10;;;1.23;;
44784;SDS011;30507;53.160;8.210;2024-02-26T01:39:12;1.23;;;1.13;;
44784;SDS011;30507;53.160;8.210;2024-02-26T01:41:37;1.15;;;1.08;;
44784;SDS011;30507;53.160;8.210;2024-02-26T01:44:03;0.85;;;0.85;;
44784;SDS011;30507;53.160;8.210;2024-02-26T01:46:28;1.27;;;1.10;;
44784;SDS011;30507;53.160;8.210;2024-02-26T01:48:53;1.00;;;1.00;;
44784;SDS011;30507;53.160;8.210;2024-02-26T01:51:19;2.05;;;1.23;;
44784;SDS011;30507;53.160;8.210;2024-02-26T01:53:44;0.87;;;0.87;;
44784;SDS011;30507;53.160;8.210;2024-02-26T01:56:09;1.03;;;0.93;;
44784;SDS011;30507;53.160;8.210;2024-02-26T01:58:35;0.90;;;0.90;;
44784;SDS011;30507;53.160;8.210;2024-02-26T02:01:01;1.58;;;1.48;;
44784;SDS011;30507;53.160;8.210;2024-02-26T02:03:27;1.05;;;1.00;;
44784;SDS011;30507;53.160;8.210;2024-02-26T02:05:52;1.20;;;1.10;;
44784;SDS011;30507;53.160;8.210;2024-02-26T02:08:17;1.00;;;1.00;;
44784;SDS011;30507;53.160;8.210;2024-02-26T02:10:43;1.58;;;1.30;;
44784;SDS011;30507;53.160;8.210;2024-02-26T02:13:09;1.17;;;1.08;;
44784;SDS011;30507;53.160;8.210;2024-02-26T02:15:34;1.23;;;1.13;;
44784;SDS011;30507;53.160;8.210;2024-02-26T02:17:59;0.90;;;0.90;;
44784;SDS011;30507;53.160;8.210;2024-02-26T02:20:26;0.75;;;0.75;;
44784;SDS011;30507;53.160;8.210;2024-02-26T02:22:52;1.05;;;0.95;;
44784;SDS011;30507;53.160;8.210;2024-02-26T02:25:17;1.20;;;1.00;;
44784;SDS011;30507;53.160;8.210;2024-02-26T02:27:43;0.93;;;0.93;;
44784;SDS011;30507;53.160;8.210;2024-02-26T02:30:08;0.77;;;0.77;;
44784;SDS011;30507;53.160;8.210;2024-02-26T02:32:34;1.17;;;1.08;;
44784;SDS011;30507;53.160;8.210;2024-02-26T02:35:00;1.10;;;1.10;;
44784;SDS011;30507;53.160;8.210;2024-02-26T02:37:25;0.90;;;0.87;;
44784;SDS011;30507;53.160;8.210;2024-02-26T02:39:50;1.20;;;1.10;;
44784;SDS011;30507;53.160;8.210;2024-02-26T02:42:16;1.10;;;1.10;;
44784;SDS011;30507;53.160;8.210;2024-02-26T02:44:41;1.40;;;1.30;;
44784;SDS011;30507;53.160;8.210;2024-02-26T02:47:06;0.90;;;0.90;;
44784;SDS011;30507;53.160;8.210;2024-02-26T02:49:32;1.25;;;1.15;;
44784;SDS011;30507;53.160;8.210;2024-02-26T02:51:57;0.80;;;0.77;;
44784;SDS011;30507;53.160;8.210;2024-02-26T02:54:22;1.08;;;1.08;;
44784;SDS011;30507;53.160;8.210;2024-02-26T02:56:47;0.90;;;0.90;;
44784;SDS011;30507;53.160;8.210;2024-02-26T02:59:12;0.82;;;0.82;;
44784;SDS011;30507;53.160;8.210;2024-02-26T03:01:38;1.00;;;1.00;;
44784;SDS011;30507;53.160;8.210;2024-02-26T03:04:03;0.70;;;0.70;;
44784;SDS011;30507;53.160;8.210;2024-02-26T03:06:28;1.05;;;1.05;;
44784;SDS011;30507;53.160;8.210;2024-02-26T03:08:54;1.10;;;1.10;;
44784;SDS011;30507;53.160;8.210;2024-02-26T03:11:19;0.95;;;0.95;;
44784;SDS011;30507;53.160;8.210;2024-02-26T03:13:44;0.90;;;0.90;;
44784;SDS011;30507;53.160;8.210;2024-02-26T03:16:10;0.80;;;0.80;;
44784;SDS011;30507;53.160;8.210;2024-02-26T03:18:35;0.93;;;0.93;;
44784;SDS011;30507;53.160;8.210;2024-02-26T03:21:00;1.33;;;1.23;;
44784;SDS011;30507;53.160;8.210;2024-02-26T03:23:26;0.87;;;0.87;;
44784;SDS011;30507;53.160;8.210;2024-02-26T03:25:51;0.90;;;0.90;;
44784;SDS011;30507;53.160;8.210;2024-02-26T03:28:16;1.63;;;1.00;;
44784;SDS011;30507;53.160;8.210;2024-02-26T03:30:41;0.80;;;0.80;;
44784;SDS011;30507;53.160;8.210;2024-02-26T03:33:06;0.77;;;0.77;;
44784;SDS011;30507;53.160;8.210;2024-02-26T03:35:31;0.93;;;0.93;;
44784;SDS011;30507;53.160;8.210;2024-02-26T03:37:56;0.95;;;0.95;;
44784;SDS011;30507;53.160;8.210;2024-02-26T03:40:22;0.87;;;0.87;;
44784;SDS011;30507;53.160;8.210;2024-02-26T03:42:47;0.90;;;0.90;;
44784;SDS011;30507;53.160;8.210;2024-02-26T03:45:12;1.07;;;1.07;;
44784;SDS011;30507;53.160;8.210;2024-02-26T03:47:38;0.83;;;0.83;;
44784;SDS011;30507;53.160;8.210;2024-02-26T03:50:05;1.15;;;1.05;;
44784;SDS011;30507;53.160;8.210;2024-02-26T03:52:30;1.30;;;1.20;;
44784;SDS011;30507;53.160;8.210;2024-02-26T03:54:55;0.70;;;0.70;;
44784;SDS011;30507;53.160;8.210;2024-02-26T03:57:20;1.00;;;0.90;;
44784;SDS011;30507;53.160;8.210;2024-02-26T03:59:45;1.27;;;1.13;;
44784;SDS011;30507;53.160;8.210;2024-02-26T04:02:11;0.80;;;0.80;;
44784;SDS011;30507;53.160;8.210;2024-02-26T04:04:36;0.98;;;0.98;;
44784;SDS011;30507;53.160;8.210;2024-02-26T04:07:01;1.37;;;1.27;;
44784;SDS011;30507;53.160;8.210;2024-02-26T04:09:26;0.95;;;0.90;;
44784;SDS011;30507;53.160;8.210;2024-02-26T04:11:51;1.50;;;1.40;;
44784;SDS011;30507;53.160;8.210;2024-02-26T04:14:16;1.40;;;1.30;;
44784;SDS011;30507;53.160;8.210;2024-02-26T04:16:41;1.30;;;1.20;;
44784;SDS011;30507;53.160;8.210;2024-02-26T04:19:07;1.33;;;1.23;;
44784;SDS011;30507;53.160;8.210;2024-02-26T04:21:32;1.47;;;1.37;;
44784;SDS011;30507;53.160;8.210;2024-02-26T04:23:57;1.10;;;1.10;;
44784;SDS011;30507;53.160;8.210;2024-02-26T04:26:25;1.13;;;1.08;;
44784;SDS011;30507;53.160;8.210;2024-02-26T04:28:50;1.20;;;1.10;;
44784;SDS011;30507;53.160;8.210;2024-02-26T04:31:16;1.15;;;1.08;;
44784;SDS011;30507;53.160;8.210;2024-02-26T04:33:41;1.10;;;1.10;;
44784;SDS011;30507;53.160;8.210;2024-02-26T04:36:11;1.20;;;1.10;;
44784;SDS011;30507;53.160;8.210;2024-02-26T04:38:37;0.90;;;0.90;;
44784;SDS011;30507;53.160;8.210;2024-02-26T04:41:02;1.20;;;1.10;;
44784;SDS011;30507;53.160;8.210;2024-02-26T04:43:27;1.40;;;1.30;;
44784;SDS011;30507;53.160;8.210;2024-02-26T04:45:52;1.20;;;1.10;;
44784;SDS011;30507;53.160;8.210;2024-02-26T04:48:17;1.50;;;1.40;;
44784;SDS011;30507;53.160;8.210;2024-02-26T04:50:42;1.40;;;1.30;;
44784;SDS011;30507;53.160;8.210;2024-02-26T04:53:08;1.10;;;1.10;;
44784;SDS011;30507;53.160;8.210;2024-02-26T04:55:33;0.90;;;0.90;;
44784;SDS011;30507;53.160;8.210;2024-02-26T04:57:58;1.27;;;1.17;;
44784;SDS011;30507;53.160;8.210;2024-02-26T05:00:23;1.38;;;1.27;;
44784;SDS011;30507;53.160;8.210;2024-02-26T05:02:48;1.30;;;1.20;;
44784;SDS011;30507;53.160;8.210;2024-02-26T05:05:13;0.80;;;0.80;;
44784;SDS011;30507;53.160;8.210;2024-02-26T05:07:39;1.42;;;1.33;;
44784;SDS011;30507;53.160;8.210;2024-02-26T05:10:04;0.90;;;0.90;;
44784;SDS011;30507;53.160;8.210;2024-02-26T05:12:30;1.15;;;1.05;;
44784;SDS011;30507;53.160;8.210;2024-02-26T05:14:55;1.47;;;1.37;;
44784;SDS011;30507;53.160;8.210;2024-02-26T05:17:20;0.90;;;0.90;;
44784;SDS011;30507;53.160;8.210;2024-02-26T05:19:45;1.00;;;1.00;;
44784;SDS011;30507;53.160;8.210;2024-02-26T05:22:11;1.03;;;1.00;;
44784;SDS011;30507;53.160;8.210;2024-02-26T05:24:37;0.97;;;0.97;;
44784;SDS011;30507;53.160;8.210;2024-02-26T05:27:02;1.10;;;1.10;;
44784;SDS011;30507;53.160;8.210;2024-02-26T05:29:27;0.97;;;0.97;;
44784;SDS011;30507;53.160;8.210;2024-02-26T05:31:53;1.20;;;1.10;;
44784;SDS011;30507;53.160;8.210;2024-02-26T05:34:19;0.77;;;0.77;;
44784;SDS011;30507;53.160;8.210;2024-02-26T05:36:44;1.57;;;1.10;;
44784;SDS011;30507;53.160;8.210;2024-02-26T05:39:09;4.10;;;1.60;;
44784;SDS011;30507;53.160;8.210;2024-02-26T05:41:36;1.88;;;1.70;;
44784;SDS011;30507;53.160;8.210;2024-02-26T05:44:02;5.40;;;2.10;;
44784;SDS011;30507;53.160;8.210;2024-02-26T05:46:28;4.78;;;1.67;;
44784;SDS011;30507;53.160;8.210;2024-02-26T05:48:53;4.57;;;2.10;;
44784;SDS011;30507;53.160;8.210;2024-02-26T05:51:19;5.77;;;2.87;;
44784;SDS011;30507;53.160;8.210;2024-02-26T05:53:44;4.43;;;1.77;;
44784;SDS011;30507;53.160;8.210;2024-02-26T05:56:09;5.28;;;1.70;;
44784;SDS011;30507;53.160;8.210;2024-02-26T05:58:35;4.63;;;1.98;;
44784;SDS011;30507;53.160;8.210;2024-02-26T06:01:00;4.33;;;2.07;;
44784;SDS011;30507;53.160;8.210;2024-02-26T06:03:25;2.30;;;1.40;;
44784;SDS011;30507;53.160;8.210;2024-02-26T06:05:51;3.10;;;2.05;;
44784;SDS011;30507;53.160;8.210;2024-02-26T06:08:16;5.43;;;1.87;;
44784;SDS011;30507;53.160;8.210;2024-02-26T06:10:41;2.33;;;1.65;;
44784;SDS011;30507;53.160;8.210;2024-02-26T06:13:06;1.63;;;1.10;;
44784;SDS011;30507;53.160;8.210;2024-02-26T06:15:31;2.93;;;1.20;;
44784;SDS011;30507;53.160;8.210;2024-02-26T06:17:57;1.10;;;1.00;;
44784;SDS011;30507;53.160;8.210;2024-02-26T06:20:22;2.00;;;1.30;;
44784;SDS011;30507;53.160;8.210;2024-02-26T06:22:47;1.70;;;1.40;;
44784;SDS011;30507;53.160;8.210;2024-02-26T06:25:12;2.53;;;1.37;;
44784;SDS011;30507;53.160;8.210;2024-02-26T06:27:37;2.93;;;1.40;;
44784;SDS011;30507;53.160;8.210;2024-02-26T06:30:03;2.28;;;2.05;;
44784;SDS011;30507;53.160;8.210;2024-02-26T06:32:28;4.57;;;1.95;;
44784;SDS011;30507;53.160;8.210;2024-02-26T06:34:54;2.30;;;1.60;;
44784;SDS011;30507;53.160;8.210;2024-02-26T06:37:19;1.23;;;1.10;;
44784;SDS011;30507;53.160;8.210;2024-02-26T06:39:45;1.73;;;1.10;;
44784;SDS011;30507;53.160;8.210;2024-02-26T06:42:10;1.70;;;1.20;;
44784;SDS011;30507;53.160;8.210;2024-02-26T06:44:35;1.77;;;1.47;;
44784;SDS011;30507;53.160;8.210;2024-02-26T06:47:00;1.30;;;1.20;;
44784;SDS011;30507;53.160;8.210;2024-02-26T06:49:26;1.25;;;1.15;;
44784;SDS011;30507;53.160;8.210;2024-02-26T06:51:51;4.93;;;2.22;;
44784;SDS011;30507;53.160;8.210;2024-02-26T06:54:16;1.17;;;1.07;;
44784;SDS011;30507;53.160;8.210;2024-02-26T06:56:41;2.47;;;1.70;;
44784;SDS011;30507;53.160;8.210;2024-02-26T06:59:06;1.13;;;1.02;;
44784;SDS011;30507;53.160;8.210;2024-02-26T07:01:32;2.43;;;1.10;;
44784;SDS011;30507;53.160;8.210;2024-02-26T07:03:57;1.57;;;1.40;;
44784;SDS011;30507;53.160;8.210;2024-02-26T07:06:22;1.27;;;1.17;;
44784;SDS011;30507;53.160;8.210;2024-02-26T07:08:47;0.93;;;0.93;;
44784;SDS011;30507;53.160;8.210;2024-02-26T07:11:12;1.20;;;0.82;;
44784;SDS011;30507;53.160;8.210;2024-02-26T07:13:37;1.47;;;1.17;;
44784;SDS011;30507;53.160;8.210;2024-02-26T07:16:03;2.73;;;1.13;;
44784;SDS011;30507;53.160;8.210;2024-02-26T07:18:28;1.20;;;0.75;;
44784;SDS011;30507;53.160;8.210;2024-02-26T07:20:53;0.98;;;0.90;;
44784;SDS011;30507;53.160;8.210;2024-02-26T07:23:19;1.52;;;1.42;;
44784;SDS011;30507;53.160;8.210;2024-02-26T07:25:44;1.00;;;0.90;;
44784;SDS011;30507;53.160;8.210;2024-02-26T07:28:09;0.80;;;0.80;;
44784;SDS011;30507;53.160;8.210;2024-02-26T07:30:34;1.70;;;1.10;;
44784;SDS011;30507;53.160;8.210;2024-02-26T07:32:59;0.70;;;0.70;;
44784;SDS011;30507;53.160;8.210;2024-02-26T07:35:24;1.27;;;1.00;;
44784;SDS011;30507;53.160;8.210;2024-02-26T07:37:50;0.47;;;0.47;;
44784;SDS011;30507;53.160;8.210;2024-02-26T07:40:15;1.03;;;0.90;;
44784;SDS011;30507;53.160;8.210;2024-02-26T07:42:40;0.73;;;0.60;;
44784;SDS011;30507;53.160;8.210;2024-02-26T07:45:06;1.73;;;0.82;;
44784;SDS011;30507;53.160;8.210;2024-02-26T07:47:31;0.65;;;0.60;;
44784;SDS011;30507;53.160;8.210;2024-02-26T07:49:59;0.90;;;0.77;;
44784;SDS011;30507;53.160;8.210;2024-02-26T07:52:24;0.50;;;0.50;;
44784;SDS011;30507;53.160;8.210;2024-02-26T07:54:50;0.65;;;0.65;;
44784;SDS011;30507;53.160;8.210;2024-02-26T07:57:15;0.85;;;0.68;;
44784;SDS011;30507;53.160;8.210;2024-02-26T07:59:42;0.82;;;0.65;;
44784;SDS011;30507;53.160;8.210;2024-02-26T08:02:07;0.85;;;0.60;;
44784;SDS011;30507;53.160;8.210;2024-02-26T08:04:32;3.47;;;0.93;;
44784;SDS011;30507;53.160;8.210;2024-02-26T08:06:57;1.20;;;0.90;;
44784;SDS011;30507;53.160;8.210;2024-02-26T08:09:22;0.80;;;0.80;;
44784;SDS011;30507;53.160;8.210;2024-02-26T08:11:48;0.95;;;0.52;;
44784;SDS011;30507;53.160;8.210;2024-02-26T08:14:13;3.05;;;0.90;;
44784;SDS011;30507;53.160;8.210;2024-02-26T08:16:38;0.47;;;0.47;;
44784;SDS011;30507;53.160;8.210;2024-02-26T08:19:03;0.68;;;0.50;;
44784;SDS011;30507;53.160;8.210;2024-02-26T08:21:29;0.50;;;0.50;;
44784;SDS011;30507;53.160;8.210;2024-02-26T08:23:54;0.70;;;0.60;;
44784;SDS011;30507;53.160;8.210;2024-02-26T08:26:19;1.27;;;0.60;;
44784;SDS011;30507;53.160;8.210;2024-02-26T08:28:45;0.70;;;0.70;;
44784;SDS011;30507;53.160;8.210;2024-02-26T08:31:12;0.88;;;0.60;;
44784;SDS011;30507;53.160;8.210;2024-02-26T08:33:38;0.57;;;0.57;;
44784;SDS011;30507;53.160;8.210;2024-02-26T08:36:04;0.75;;;0.63;;
44784;SDS011;30507;53.160;8.210;2024-02-26T08:38:29;0.43;;;0.43;;
44784;SDS011;30507;53.160;8.210;2024-02-26T08:40:54;0.57;;;0.57;;
44784;SDS011;30507;53.160;8.210;2024-02-26T08:43:19;0.90;;;0.50;;
44784;SDS011;30507;53.160;8.210;2024-02-26T08:45:44;0.50;;;0.43;;
44784;SDS011;30507;53.160;8.210;2024-02-26T08:48:10;0.70;;;0.50;;
44784;SDS011;30507;53.160;8.210;2024-02-26T08:50:35;0.93;;;0.63;;
44784;SDS011;30507;53.160;8.210;2024-02-26T08:53:00;0.80;;;0.40;;
44784;SDS011;30507;53.160;8.210;2024-02-26T08:55:26;0.98;;;0.52;;
44784;SDS011;30507;53.160;8.210;2024-02-26T08:57:51;0.82;;;0.68;;
44784;SDS011;30507;53.160;8.210;2024-02-26T09:00:16;0.50;;;0.50;;
44784;SDS011;30507;53.160;8.210;2024-02-26T09:02:42;0.30;;;0.30;;
44784;SDS011;30507;53.160;8.210;2024-02-26T09:05:08;0.65;;;0.43;;
44784;SDS011;30507;53.160;8.210;2024-02-26T09:07:34;0.50;;;0.50;;
44784;SDS011;30507;53.160;8.210;2024-02-26T09:09:59;0.50;;;0.50;;
44784;SDS011;30507;53.160;8.210;2024-02-26T09:12:24;0.40;;;0.40;;
44784;SDS011;30507;53.160;8.210;2024-02-26T09:14:49;0.50;;;0.50;;
44784;SDS011;30507;53.160;8.210;2024-02-26T09:17:14;0.50;;;0.50;;
44784;SDS011;30507;53.160;8.210;2024-02-26T09:19:40;0.75;;;0.50;;
44784;SDS011;30507;53.160;8.210;2024-02-26T09:22:07;0.40;;;0.40;;
44784;SDS011;30507;53.160;8.210;2024-02-26T09:24:32;0.40;;;0.40;;
44784;SDS011;30507;53.160;8.210;2024-02-26T09:26:57;0.47;;;0.47;;
44784;SDS011;30507;53.160;8.210;2024-02-26T09:29:22;0.30;;;0.30;;
44784;SDS011;30507;53.160;8.210;2024-02-26T09:31:47;0.30;;;0.30;;
44784;SDS011;30507;53.160;8.210;2024-02-26T09:34:13;0.60;;;0.60;;
44784;SDS011;30507;53.160;8.210;2024-02-26T09:36:38;0.40;;;0.40;;
44784;SDS011;30507;53.160;8.210;2024-02-26T09:39:03;0.53;;;0.50;;
44784;SDS011;30507;53.160;8.210;2024-02-26T09:41:30;0.88;;;0.70;;
44784;SDS011;30507;53.160;8.210;2024-02-26T09:43:56;0.45;;;0.40;;
44784;SDS011;30507;53.160;8.210;2024-02-26T09:46:21;0.40;;;0.40;;
44784;SDS011;30507;53.160;8.210;2024-02-26T09:48:46;0.50;;;0.50;;
44784;SDS011;30507;53.160;8.210;2024-02-26T09:51:12;0.30;;;0.30;;
44784;SDS011;30507;53.160;8.210;2024-02-26T09:53:38;0.87;;;0.47;;
44784;SDS011;30507;53.160;8.210;2024-02-26T09:56:07;0.50;;;0.50;;
44784;SDS011;30507;53.160;8.210;2024-02-26T09:58:32;0.83;;;0.40;;
44784;SDS011;30507;53.160;8.210;2024-02-26T10:00:58;0.32;;;0.30;;
44784;SDS011;30507;53.160;8.210;2024-02-26T10:03:28;0.52;;;0.45;;
44784;SDS011;30507;53.160;8.210;2024-02-26T10:05:54;0.40;;;0.40;;
44784;SDS011;30507;53.160;8.210;2024-02-26T10:08:20;0.28;;;0.28;;
44784;SDS011;30507;53.160;8.210;2024-02-26T10:10:47;0.60;;;0.60;;
44784;SDS011;30507;53.160;8.210;2024-02-26T10:13:12;0.50;;;0.50;;
44784;SDS011;30507;53.160;8.210;2024-02-26T10:15:37;0.33;;;0.33;;
44784;SDS011;30507;53.160;8.210;2024-02-26T10:18:05;0.75;;;0.63;;
44784;SDS011;30507;53.160;8.210;2024-02-26T10:20:31;0.30;;;0.30;;
44784;SDS011;30507;53.160;8.210;2024-02-26T10:22:56;0.30;;;0.30;;
44784;SDS011;30507;53.160;8.210;2024-02-26T10:25:22;0.40;;;0.40;;
44784;SDS011;30507;53.160;8.210;2024-02-26T10:27:48;0.85;;;0.60;;
44784;SDS011;30507;53.160;8.210;2024-02-26T10:30:20;0.57;;;0.50;;
44784;SDS011;30507;53.160;8.210;2024-02-26T10:32:46;0.80;;;0.70;;
44784;SDS011;30507;53.160;8.210;2024-02-26T10:35:12;0.50;;;0.50;;
44784;SDS011;30507;53.160;8.210;2024-02-26T10:37:37;0.40;;;0.40;;
44784;SDS011;30507;53.160;8.210;2024-02-26T10:40:02;0.30;;;0.30;;
44784;SDS011;30507;53.160;8.210;2024-02-26T10:42:28;0.32;;;0.28;;
44784;SDS011;30507;53.160;8.210;2024-02-26T10:44:53;0.33;;;0.33;;
44784;SDS011;30507;53.160;8.210;2024-02-26T10:47:18;0.60;;;0.30;;
44784;SDS011;30507;53.160;8.210;2024-02-26T10:49:47;0.30;;;0.30;;
44784;SDS011;30507;53.160;8.210;2024-02-26T10:52:15;0.47;;;0.47;;
44784;SDS011;30507;53.160;8.210;2024-02-26T10:54:42;0.68;;;0.50;;
44784;SDS011;30507;53.160;8.210;2024-02-26T10:57:09;0.60;;;0.40;;
44784;SDS011;30507;53.160;8.210;2024-02-26T10:59:34;0.50;;;0.50;;
44784;SDS011;30507;53.160;8.210;2024-02-26T11:02:00;0.50;;;0.50;;
44784;SDS011;30507;53.160;8.210;2024-02-26T11:04:25;0.40;;;0.40;;
44784;SDS011;30507;53.160;8.210;2024-02-26T11:06:52;0.32;;;0.32;;
44784;SDS011;30507;53.160;8.210;2024-02-26T11:09:20;0.38;;;0.38;;
44784;SDS011;30507;53.160;8.210;2024-02-26T11:11:46;0.25;;;0.25;;
44784;SDS011;30507;53.160;8.210;2024-02-26T11:14:11;0.45;;;0.45;;
44784;SDS011;30507;53.160;8.210;2024-02-26T11:16:38;0.32;;;0.32;;
44784;SDS011;30507;53.160;8.210;2024-02-26T11:19:03;0.50;;;0.50;;
44784;SDS011;30507;53.160;8.210;2024-02-26T11:21:31;0.30;;;0.30;;
44784;SDS011;30507;53.160;8.210;2024-02-26T11:24:08;0.30;;;0.30;;
44784;SDS011;30507;53.160;8.210;2024-02-26T11:26:35;0.30;;;0.30;;
44784;SDS011;30507;53.160;8.210;2024-02-26T11:29:02;0.57;;;0.50;;
44784;SDS011;30507;53.160;8.210;2024-02-26T11:31:27;0.50;;;0.50;;
44784;SDS011;30507;53.160;8.210;2024-02-26T11:33:53;0.40;;;0.40;;
44784;SDS011;30507;53.160;8.210;2024-02-26T11:36:18;0.52;;;0.50;;
44784;SDS011;30507;53.160;8.210;2024-02-26T11:38:44;0.50;;;0.50;;
44784;SDS011;30507;53.160;8.210;2024-02-26T11:46:33;0.60;;;0.60;;
44784;SDS011;30507;53.160;8.210;2024-02-26T11:51:50;0.52;;;0.50;;
44784;SDS011;30507;53.160;8.210;2024-02-26T11:54:36;0.47;;;0.47;;
44784;SDS011;30507;53.160;8.210;2024-02-26T11:57:01;0.50;;;0.50;;
44784;SDS011;30507;53.160;8.210;2024-02-26T11:59:39;0.40;;;0.40;;
44784;SDS011;30507;53.160;8.210;2024-02-26T12:02:05;0.40;;;0.40;;
44784;SDS011;30507;53.160;8.210;2024-02-26T12:04:31;0.32;;;0.32;;
44784;SDS011;30507;53.160;8.210;2024-02-26T12:06:58;0.57;;;0.50;;
44784;SDS011;30507;53.160;8.210;2024-02-26T12:11:50;0.28;;;0.28;;
44784;SDS011;30507;53.160;8.210;2024-02-26T12:14:15;0.60;;;0.60;;
44784;SDS011;30507;53.160;8.210;2024-02-26T12:16:42;0.57;;;0.57;;
44784;SDS011;30507;53.160;8.210;2024-02-26T12:19:10;0.95;;;0.45;;
44784;SDS011;30507;53.160;8.210;2024-02-26T12:21:36;0.52;;;0.47;;
44784;SDS011;30507;53.160;8.210;2024-02-26T12:24:11;0.40;;;0.40;;
44784;SDS011;30507;53.160;8.210;2024-02-26T12:26:37;0.30;;;0.30;;
44784;SDS011;30507;53.160;8.210;2024-02-26T12:29:02;0.40;;;0.40;;
44784;SDS011;30507;53.160;8.210;2024-02-26T12:31:27;0.50;;;0.50;;
44784;SDS011;30507;53.160;8.210;2024-02-26T12:33:54;0.60;;;0.60;;
44784;SDS011;30507;53.160;8.210;2024-02-26T12:36:19;0.38;;;0.38;;
44784;SDS011;30507;53.160;8.210;2024-02-26T12:38:44;0.50;;;0.50;;
44784;SDS011;30507;53.160;8.210;2024-02-26T12:41:09;0.40;;;0.40;;
44784;SDS011;30507;53.160;8.210;2024-02-26T12:43:34;0.47;;;0.47;;
44784;SDS011;30507;53.160;8.210;2024-02-26T12:46:02;0.40;;;0.40;;
44784;SDS011;30507;53.160;8.210;2024-02-26T12:48:27;0.52;;;0.52;;
44784;SDS011;30507;53.160;8.210;2024-02-26T12:50:53;0.50;;;0.50;;
44784;SDS011;30507;53.160;8.210;2024-02-26T12:53:19;0.45;;;0.45;;
44784;SDS011;30507;53.160;8.210;2024-02-26T12:55:44;0.40;;;0.40;;
44784;SDS011;30507;53.160;8.210;2024-02-26T12:58:09;0.40;;;0.40;;
44784;SDS011;30507;53.160;8.210;2024-02-26T13:00:35;0.55;;;0.55;;
44784;SDS011;30507;53.160;8.210;2024-02-26T13:03:00;0.60;;;0.60;;
44784;SDS011;30507;53.160;8.210;2024-02-26T13:05:26;0.40;;;0.40;;
44784;SDS011;30507;53.160;8.210;2024-02-26T13:07:51;0.45;;;0.45;;
44784;SDS011;30507;53.160;8.210;2024-02-26T13:10:18;0.98;;;0.40;;
44784;SDS011;30507;53.160;8.210;2024-02-26T13:12:46;0.60;;;0.60;;
44784;SDS011;30507;53.160;8.210;2024-02-26T13:15:15;0.30;;;0.30;;
44784;SDS011;30507;53.160;8.210;2024-02-26T13:17:41;0.63;;;0.63;;
44784;SDS011;30507;53.160;8.210;2024-02-26T13:20:07;0.50;;;0.50;;
44784;SDS011;30507;53.160;8.210;2024-02-26T13:22:34;0.60;;;0.60;;
44784;SDS011;30507;53.160;8.210;2024-02-26T13:25:00;0.60;;;0.60;;
44784;SDS011;30507;53.160;8.210;2024-02-26T13:27:27;0.40;;;0.40;;
44784;SDS011;30507;53.160;8.210;2024-02-26T13:32:32;0.63;;;0.63;;
44784;SDS011;30507;53.160;8.210;2024-02-26T13:35:10;0.50;;;0.50;;
44784;SDS011;30507;53.160;8.210;2024-02-26T13:37:36;0.55;;;0.55;;
44784;SDS011;30507;53.160;8.210;2024-02-26T13:40:04;0.47;;;0.47;;
44784;SDS011;30507;53.160;8.210;2024-02-26T13:42:30;0.63;;;0.63;;
44784;SDS011;30507;53.160;8.210;2024-02-26T13:44:55;0.50;;;0.50;;
44784;SDS011;30507;53.160;8.210;2024-02-26T13:47:20;0.47;;;0.47;;
44784;SDS011;30507;53.160;8.210;2024-02-26T13:49:45;0.38;;;0.38;;
44784;SDS011;30507;53.160;8.210;2024-02-26T13:52:11;0.60;;;0.60;;
44784;SDS011;30507;53.160;8.210;2024-02-26T13:54:36;0.87;;;0.57;;
44784;SDS011;30507;53.160;8.210;2024-02-26T13:57:03;0.67;;;0.67;;
44784;SDS011;30507;53.160;8.210;2024-02-26T13:59:28;0.40;;;0.40;;
44784;SDS011;30507;53.160;8.210;2024-02-26T14:01:53;0.70;;;0.70;;
44784;SDS011;30507;53.160;8.210;2024-02-26T14:04:20;0.40;;;0.40;;
44784;SDS011;30507;53.160;8.210;2024-02-26T14:06:45;0.60;;;0.60;;
44784;SDS011;30507;53.160;8.210;2024-02-26T14:09:10;0.77;;;0.50;;
44784;SDS011;30507;53.160;8.210;2024-02-26T14:11:35;0.60;;;0.60;;
44784;SDS011;30507;53.160;8.210;2024-02-26T14:14:01;0.50;;;0.50;;
44784;SDS011;30507;53.160;8.210;2024-02-26T14:16:26;0.50;;;0.50;;
44784;SDS011;30507;53.160;8.210;2024-02-26T14:18:51;0.60;;;0.60;;
44784;SDS011;30507;53.160;8.210;2024-02-26T14:21:16;0.50;;;0.50;;
44784;SDS011;30507;53.160;8.210;2024-02-26T14:23:42;0.77;;;0.77;;
44784;SDS011;30507;53.160;8.210;2024-02-26T14:26:09;0.53;;;0.53;;
44784;SDS011;30507;53.160;8.210;2024-02-26T14:28:34;0.68;;;0.68;;
44784;SDS011;30507;53.160;8.210;2024-02-26T14:30:59;0.50;;;0.50;;
44784;SDS011;30507;53.160;8.210;2024-02-26T14:33:25;0.30;;;0.30;;
44784;SDS011;30507;53.160;8.210;2024-02-26T14:35:50;0.40;;;0.40;;
44784;SDS011;30507;53.160;8.210;2024-02-26T14:38:15;0.60;;;0.50;;
44784;SDS011;30507;53.160;8.210;2024-02-26T14:40:41;0.57;;;0.57;;
44784;SDS011;30507;53.160;8.210;2024-02-26T14:43:06;0.40;;;0.40;;
44784;SDS011;30507;53.160;8.210;2024-02-26T14:45:34;0.40;;;0.40;;
44784;SDS011;30507;53.160;8.210;2024-02-26T14:48:00;0.50;;;0.50;;
44784;SDS011;30507;53.160;8.210;2024-02-26T14:50:25;0.63;;;0.63;;
44784;SDS011;30507;53.160;8.210;2024-02-26T14:52:50;0.50;;;0.50;;